Time;durP1;ratioP1;P1;durP2;ratioP2;P2;SDS_P1;SDS_P2;PMS_P1;PMS_P2;Temp;Humidity;BMP_temperature;BMP_pressure;BME280_temperature;BME280_humidity;BME280_pressure;Samples;Min_cycle;Max_cycle;Signal;HPM_P1;HPM_P2
2023/06/14 00:00:31;;;;;;;6.60;1.70;;;16.90;84.40;;;;;;5006178;28;20037;-72
2023/06/14 00:02:58;;;;;;;7.82;2.00;;;16.80;84.70;;;;;;5005141;28;20048;-71
2023/06/14 00:05:24;;;;;;;10.13;1.98;;;16.70;84.60;;;;;;5005908;28;20044;-72
2023/06/14 00:07:53;;;;;;;5.00;2.10;;;16.70;85.10;;;;;;5003931;28;20033;-71
2023/06/14 00:10:19;;;;;;;5.55;1.85;;;16.70;86.10;;;;;;5005395;28;20384;-71
2023/06/14 00:12:45;;;;;;;8.45;2.75;;;16.60;85.60;;;;;;5005678;28;20049;-72
2023/06/14 00:15:10;;;;;;;8.63;2.13;;;16.60;86.60;;;;;;5005821;28;20038;-71
2023/06/14 00:17:38;;;;;;;6.38;1.77;;;16.50;86.60;;;;;;5002579;28;20048;-72
2023/06/14 00:20:07;;;;;;;5.13;1.88;;;16.40;88.20;;;;;;5004490;28;20781;-71
2023/06/14 00:22:34;;;;;;;6.85;2.08;;;16.30;87.70;;;;;;5003324;28;20843;-71
2023/06/14 00:24:59;;;;;;;5.20;1.80;;;16.30;88.10;;;;;;5006786;28;20049;-71
2023/06/14 00:27:25;;;;;;;8.05;2.20;;;16.30;88.10;;;;;;5002483;28;20048;-71
2023/06/14 00:29:51;;;;;;;9.82;2.35;;;16.20;88.30;;;;;;5005155;28;20133;-71
2023/06/14 00:32:18;;;;;;;7.13;1.88;;;16.20;88.80;;;;;;5003965;28;20799;-71
2023/06/14 00:34:44;;;;;;;8.20;2.10;;;16.20;88.90;;;;;;5004016;28;20064;-71
2023/06/14 00:37:10;;;;;;;6.35;1.80;;;16.10;90.20;;;;;;4997375;28;21212;-71
2023/06/14 00:39:35;;;;;;;8.70;1.80;;;16.10;89.70;;;;;;4998479;28;20038;-72
2023/06/14 00:42:01;;;;;;;7.28;1.95;;;16.10;89.90;;;;;;5002381;28;20058;-71
2023/06/14 00:44:27;;;;;;;6.20;1.67;;;16.00;90.00;;;;;;5005899;28;20046;-71
2023/06/14 00:46:52;;;;;;;3.83;1.80;;;15.90;90.10;;;;;;5004001;28;20049;-71
2023/06/14 00:49:20;;;;;;;5.47;2.03;;;15.90;90.40;;;;;;5004159;28;20465;-71
2023/06/14 00:51:45;;;;;;;9.27;2.28;;;15.90;90.40;;;;;;5005587;28;20037;-71
2023/06/14 00:54:11;;;;;;;4.05;1.45;;;15.80;90.50;;;;;;5003009;28;20054;-71
2023/06/14 00:56:38;;;;;;;5.63;1.80;;;15.80;90.50;;;;;;5005410;28;20442;-72
2023/06/14 00:59:04;;;;;;;3.58;1.83;;;15.80;90.70;;;;;;5003862;28;20042;-71
2023/06/14 01:01:32;;;;;;;4.72;1.55;;;15.80;90.90;;;;;;5001777;28;20068;-72
2023/06/14 01:03:59;;;;;;;6.65;2.13;;;15.80;90.90;;;;;;5015861;28;20056;-72
2023/06/14 01:07:02;;;;;;;9.73;1.85;;;15.90;91.10;;;;;;5037703;28;20045;-72
2023/06/14 01:09:41;;;;;;;5.00;1.58;;;15.70;91.50;;;;;;4997768;28;20050;-72
2023/06/14 01:12:25;;;;;;;7.90;1.73;;;15.70;91.30;;;;;;5002538;28;20081;-72
2023/06/14 01:14:53;;;;;;;5.57;1.50;;;15.70;91.40;;;;;;5001548;28;20451;-72
2023/06/14 01:17:20;;;;;;;4.10;1.73;;;15.70;91.40;;;;;;5034799;28;20049;-72
2023/06/14 01:19:46;;;;;;;8.73;1.92;;;15.70;91.70;;;;;;4991654;28;20038;-72
2023/06/14 01:22:12;;;;;;;8.75;1.70;;;15.70;91.60;;;;;;5004781;28;20041;-72
2023/06/14 01:24:39;;;;;;;4.10;1.70;;;15.60;91.80;;;;;;5037169;28;20568;-71
2023/06/14 01:27:07;;;;;;;3.75;1.52;;;15.60;92.00;;;;;;4990776;28;20117;-72
2023/06/14 01:29:36;;;;;;;5.28;1.52;;;15.60;92.10;;;;;;5005674;28;20096;-72
2023/06/14 01:32:02;;;;;;;5.60;1.60;;;15.60;92.10;;;;;;5006127;28;20057;-72
2023/06/14 01:34:28;;;;;;;6.70;1.70;;;15.50;92.10;;;;;;5006239;28;20136;-72
2023/06/14 01:36:57;;;;;;;8.05;1.80;;;15.50;92.40;;;;;;5003443;28;20094;-72
2023/06/14 01:39:23;;;;;;;6.55;1.70;;;15.50;92.60;;;;;;5006054;28;20054;-72
2023/06/14 01:41:50;;;;;;;5.03;1.40;;;15.50;92.60;;;;;;5006549;28;20452;-72
2023/06/14 01:44:18;;;;;;;5.88;1.52;;;15.40;92.90;;;;;;5036291;28;20521;-72
2023/06/14 01:46:44;;;;;;;6.95;1.67;;;15.40;92.80;;;;;;5034341;28;20054;-71
2023/06/14 01:49:11;;;;;;;5.20;2.00;;;15.30;93.00;;;;;;4991014;28;20513;-71
2023/06/14 01:51:36;;;;;;;5.22;1.50;;;15.30;93.20;;;;;;5037273;28;20056;-71
2023/06/14 01:54:02;;;;;;;5.40;1.92;;;15.30;93.30;;;;;;5020661;28;20046;-71
2023/06/14 01:56:28;;;;;;;3.70;1.40;;;15.30;93.30;;;;;;5036627;28;20049;-71
2023/06/14 01:58:54;;;;;;;6.68;1.40;;;15.30;93.50;;;;;;5009331;28;20038;-72
2023/06/14 02:01:21;;;;;;;8.07;2.10;;;15.20;93.70;;;;;;5009176;28;20052;-71
2023/06/14 02:03:48;;;;;;;4.38;1.63;;;15.20;93.70;;;;;;5006552;28;20085;-71
2023/06/14 02:06:15;;;;;;;4.80;1.80;;;15.30;94.10;;;;;;5008065;28;20038;-72
2023/06/14 02:08:42;;;;;;;7.63;1.83;;;15.10;94.10;;;;;;5010003;28;20046;-71
2023/06/14 02:11:08;;;;;;;4.00;1.83;;;15.10;94.10;;;;;;5005385;28;20042;-71
2023/06/14 02:13:34;;;;;;;3.60;1.52;;;15.10;94.60;;;;;;5033584;28;20052;-71
2023/06/14 02:16:00;;;;;;;3.28;1.50;;;15.10;94.70;;;;;;5032368;28;20057;-71
2023/06/14 02:18:27;;;;;;;5.22;1.75;;;15.00;94.80;;;;;;5021121;28;20045;-71
2023/06/14 02:20:56;;;;;;;4.93;1.80;;;15.10;95.00;;;;;;5007868;28;20045;-71
2023/06/14 02:23:21;;;;;;;7.50;2.03;;;15.00;95.00;;;;;;5005857;28;20127;-71
2023/06/14 02:25:47;;;;;;;10.68;1.90;;;15.00;95.40;;;;;;4999793;28;20044;-71
2023/06/14 02:28:13;;;;;;;7.82;1.80;;;14.90;95.80;;;;;;5001751;28;20053;-71
2023/06/14 02:30:39;;;;;;;6.55;1.67;;;14.90;96.30;;;;;;5004907;28;20037;-71
2023/06/14 02:33:04;;;;;;;5.82;2.05;;;14.80;96.40;;;;;;5002679;28;20356;-72
2023/06/14 02:35:30;;;;;;;5.85;1.70;;;14.80;97.10;;;;;;5000907;28;20050;-72
2023/06/14 02:37:56;;;;;;;6.30;2.10;;;14.70;97.30;;;;;;5001824;28;20128;-71
2023/06/14 02:40:23;;;;;;;8.30;2.15;;;14.70;97.50;;;;;;5012554;28;20053;-71
2023/06/14 02:42:48;;;;;;;7.82;2.08;;;14.70;98.30;;;;;;5001991;28;20738;-71
2023/06/14 02:45:14;;;;;;;5.25;1.70;;;14.60;98.50;;;;;;4998880;28;20050;-71
2023/06/14 02:47:40;;;;;;;5.78;1.92;;;14.60;98.60;;;;;;5002452;28;21084;-71
2023/06/14 02:50:07;;;;;;;6.35;2.17;;;14.60;98.80;;;;;;5003201;28;20061;-66
2023/06/14 02:52:33;;;;;;;7.78;1.90;;;14.60;99.40;;;;;;5001438;28;20084;-66
2023/06/14 02:54:59;;;;;;;6.28;1.83;;;14.50;99.60;;;;;;4999450;28;20135;-66
2023/06/14 02:57:25;;;;;;;10.55;2.05;;;14.60;99.90;;;;;;5002808;28;20165;-67
2023/06/14 02:59:51;;;;;;;7.20;1.88;;;14.60;99.90;;;;;;5002243;28;20049;-67
2023/06/14 03:02:17;;;;;;;7.95;2.30;;;14.50;99.90;;;;;;5002222;28;20050;-67
2023/06/14 03:04:44;;;;;;;6.18;1.88;;;14.60;99.90;;;;;;5000706;28;20414;-66
2023/06/14 03:07:10;;;;;;;4.95;2.20;;;14.50;99.90;;;;;;5013956;28;20132;-67
2023/06/14 03:09:39;;;;;;;8.45;2.38;;;14.60;99.90;;;;;;5035237;28;20038;-67
2023/06/14 03:12:09;;;;;;;7.05;2.10;;;14.50;99.90;;;;;;5004488;28;20038;-67
2023/06/14 03:14:35;;;;;;;8.00;2.30;;;14.40;99.90;;;;;;5002344;28;20076;-66
2023/06/14 03:17:02;;;;;;;7.57;2.15;;;14.40;99.90;;;;;;5000801;28;20133;-66
2023/06/14 03:19:27;;;;;;;5.88;2.15;;;14.50;99.90;;;;;;5000739;28;20552;-66
2023/06/14 03:21:56;;;;;;;7.63;2.55;;;14.40;99.90;;;;;;5000093;28;20042;-66
2023/06/14 03:24:23;;;;;;;7.25;2.00;;;14.40;99.90;;;;;;5000211;28;20153;-67
2023/06/14 03:26:49;;;;;;;5.75;1.98;;;14.40;99.90;;;;;;5029106;28;20054;-66
2023/06/14 03:29:15;;;;;;;6.60;2.17;;;14.40;99.90;;;;;;5030382;28;20717;-67
2023/06/14 03:31:58;;;;;;;7.65;2.08;;;14.40;99.90;;;;;;4999704;28;20061;-66
2023/06/14 03:34:24;;;;;;;9.77;2.40;;;14.50;99.90;;;;;;4999393;28;20187;-66
2023/06/14 03:36:50;;;;;;;6.65;2.20;;;14.50;99.90;;;;;;4996893;28;20049;-66
2023/06/14 03:39:15;;;;;;;6.43;2.50;;;14.50;99.90;;;;;;5005600;28;20057;-66
2023/06/14 03:41:41;;;;;;;4.78;1.98;;;14.50;99.90;;;;;;5039058;28;20391;-67
2023/06/14 03:44:07;;;;;;;7.65;2.38;;;14.50;99.90;;;;;;5005582;28;20045;-67
2023/06/14 03:46:32;;;;;;;7.00;2.47;;;14.50;99.90;;;;;;5003533;28;20041;-66
2023/06/14 03:48:58;;;;;;;7.18;2.25;;;14.50;99.90;;;;;;5004853;28;20124;-67
2023/06/14 03:51:25;;;;;;;4.75;2.30;;;14.50;99.90;;;;;;5003805;28;20118;-66
2023/06/14 03:53:50;;;;;;;12.02;2.70;;;14.50;99.90;;;;;;5005524;28;20046;-66
2023/06/14 03:56:16;;;;;;;7.20;2.35;;;14.50;99.90;;;;;;5005014;28;20455;-67
2023/06/14 03:58:42;;;;;;;5.85;2.28;;;14.50;99.90;;;;;;5007812;28;20041;-66
2023/06/14 04:01:07;;;;;;;10.57;2.60;;;14.50;99.90;;;;;;5006227;28;20137;-67
2023/06/14 04:03:33;;;;;;;8.43;2.60;;;14.50;99.90;;;;;;5007798;28;20046;-66
2023/06/14 04:06:00;;;;;;;5.85;2.47;;;14.50;99.90;;;;;;5003705;28;20054;-66
2023/06/14 04:08:26;;;;;;;6.72;2.75;;;14.50;99.90;;;;;;5006043;28;20056;-67
2023/06/14 04:10:51;;;;;;;7.63;2.47;;;14.60;99.90;;;;;;5005712;28;20042;-66
2023/06/14 04:13:17;;;;;;;6.80;2.47;;;14.60;99.90;;;;;;5007103;28;20049;-66
2023/06/14 04:15:46;;;;;;;4.60;2.22;;;14.60;99.90;;;;;;5004389;28;20042;-66
2023/06/14 04:18:12;;;;;;;7.70;2.38;;;14.60;99.90;;;;;;5004780;28;20034;-66
2023/06/14 04:20:39;;;;;;;9.45;2.33;;;14.70;99.90;;;;;;5015313;28;20035;-67
2023/06/14 04:23:17;;;;;;;8.32;2.55;;;14.70;99.90;;;;;;4998555;28;20098;-66
2023/06/14 04:25:45;;;;;;;6.72;2.53;;;14.70;99.90;;;;;;4999886;28;20049;-66
2023/06/14 04:28:18;;;;;;;8.48;2.17;;;14.70;99.90;;;;;;4983831;28;20129;-66
2023/06/14 04:30:44;;;;;;;6.68;1.95;;;14.70;99.90;;;;;;5003434;28;20403;-66
2023/06/14 04:33:11;;;;;;;7.70;2.53;;;14.80;99.90;;;;;;5004793;28;20045;-66
2023/06/14 04:35:37;;;;;;;5.47;2.13;;;14.80;99.90;;;;;;5035181;28;20544;-66
2023/06/14 04:38:09;;;;;;;7.13;2.22;;;15.10;99.90;;;;;;5006277;28;20042;-67
2023/06/14 04:40:42;;;;;;;7.20;2.38;;;15.40;99.90;;;;;;5016227;28;20100;-67
2023/06/14 04:43:08;;;;;;;10.52;2.60;;;15.70;99.90;;;;;;5005106;28;20128;-67
2023/06/14 04:45:34;;;;;;;10.10;2.10;;;16.00;99.90;;;;;;5005506;28;20044;-67
2023/06/14 04:48:00;;;;;;;7.13;2.50;;;16.30;99.90;;;;;;5006836;28;20502;-67
2023/06/14 04:50:26;;;;;;;6.30;2.30;;;16.60;99.90;;;;;;5003134;28;20516;-67
2023/06/14 04:52:53;;;;;;;7.93;2.28;;;16.90;99.90;;;;;;5033318;28;20537;-67
2023/06/14 04:55:19;;;;;;;8.30;2.30;;;17.20;99.90;;;;;;5003334;28;20053;-67
2023/06/14 04:57:46;;;;;;;5.75;2.50;;;17.40;99.90;;;;;;5005387;28;20045;-67
2023/06/14 05:00:12;;;;;;;7.10;2.17;;;17.70;99.90;;;;;;5003953;28;20117;-67
2023/06/14 05:02:37;;;;;;;5.38;2.17;;;17.90;99.90;;;;;;5018098;28;20042;-67
2023/06/14 05:05:07;;;;;;;5.35;2.40;;;18.20;99.90;;;;;;5035777;28;20046;-67
2023/06/14 05:07:33;;;;;;;6.95;2.42;;;18.40;99.90;;;;;;5005984;28;21753;-72
2023/06/14 05:09:59;;;;;;;5.93;2.25;;;18.60;99.90;;;;;;5030779;28;20519;-73
2023/06/14 05:12:25;;;;;;;11.05;2.50;;;18.90;99.90;;;;;;5013493;28;20415;-72
2023/06/14 05:14:51;;;;;;;6.88;2.20;;;19.10;99.90;;;;;;5004726;28;20038;-73
2023/06/14 05:17:17;;;;;;;7.10;2.05;;;19.20;99.10;;;;;;5001212;28;20038;-72
2023/06/14 05:19:43;;;;;;;5.40;2.05;;;19.40;98.90;;;;;;4998387;28;20042;-72
2023/06/14 05:22:08;;;;;;;5.70;2.25;;;19.60;98.50;;;;;;4998672;28;20065;-73
2023/06/14 05:24:34;;;;;;;8.48;2.58;;;19.80;97.80;;;;;;5000699;28;20093;-72
2023/06/14 05:27:00;;;;;;;4.80;2.08;;;19.90;97.30;;;;;;5004836;28;20056;-73
2023/06/14 05:29:27;;;;;;;6.43;2.30;;;19.90;96.90;;;;;;5006172;28;20046;-72
2023/06/14 05:31:53;;;;;;;7.15;2.88;;;20.00;96.80;;;;;;5005770;28;20093;-72
2023/06/14 05:34:18;;;;;;;6.03;2.38;;;19.80;96.70;;;;;;5002990;28;20088;-72
2023/06/14 05:36:44;;;;;;;11.35;3.53;;;19.60;96.80;;;;;;5005995;28;20042;-72
2023/06/14 05:39:10;;;;;;;8.07;2.60;;;19.30;97.20;;;;;;5020258;28;20090;-72
2023/06/14 05:41:36;;;;;;;5.55;2.45;;;18.90;97.60;;;;;;5004258;28;20045;-72
2023/06/14 05:44:02;;;;;;;6.05;2.35;;;18.70;97.80;;;;;;5000145;28;20053;-72
2023/06/14 05:46:28;;;;;;;6.65;2.50;;;18.50;98.20;;;;;;5004972;28;20475;-72
2023/06/14 05:48:54;;;;;;;10.25;3.13;;;18.30;98.70;;;;;;5003525;28;20045;-73
2023/06/14 05:51:21;;;;;;;7.32;2.63;;;18.10;99.00;;;;;;5018652;28;20054;-71
2023/06/14 05:53:47;;;;;;;7.00;2.30;;;18.00;99.40;;;;;;5001059;28;20046;-72
2023/06/14 05:56:14;;;;;;;6.85;2.22;;;18.00;99.90;;;;;;5029485;28;20276;-72
2023/06/14 05:58:40;;;;;;;8.88;2.67;;;17.90;99.90;;;;;;5007393;28;20519;-71
2023/06/14 06:01:05;;;;;;;8.00;2.63;;;17.90;99.90;;;;;;5029904;28;20081;-71
2023/06/14 06:03:32;;;;;;;7.03;2.72;;;18.00;99.90;;;;;;4998706;28;20125;-72
2023/06/14 06:05:58;;;;;;;10.52;2.40;;;18.30;99.90;;;;;;5001101;28;20402;-72
2023/06/14 06:08:24;;;;;;;17.58;2.85;;;18.70;99.90;;;;;;5007997;28;20045;-73
2023/06/14 06:10:50;;;;;;;6.28;2.30;;;19.10;99.90;;;;;;5002924;28;20548;-73
2023/06/14 06:13:16;;;;;;;7.28;2.78;;;19.50;98.90;;;;;;4985063;28;20053;-72
2023/06/14 06:15:42;;;;;;;8.20;2.40;;;19.80;98.10;;;;;;4998069;28;20724;-72
2023/06/14 06:18:07;;;;;;;5.93;2.17;;;20.10;97.70;;;;;;5006906;28;20041;-72
2023/06/14 06:20:33;;;;;;;6.60;2.25;;;20.40;97.10;;;;;;5002411;28;20042;-72
2023/06/14 06:22:59;;;;;;;7.72;2.50;;;20.50;96.40;;;;;;5004038;28;20622;-72
2023/06/14 06:25:26;;;;;;;7.00;2.42;;;20.50;96.00;;;;;;4998439;28;20077;-72
2023/06/14 06:27:53;;;;;;;13.00;2.40;;;20.30;96.00;;;;;;5003638;28;20057;-71
2023/06/14 06:30:20;;;;;;;7.13;2.70;;;20.10;96.40;;;;;;5003969;28;20061;-71
2023/06/14 06:32:46;;;;;;;12.13;2.53;;;19.90;96.60;;;;;;5005175;28;20042;-71
2023/06/14 06:35:14;;;;;;;5.55;2.38;;;19.60;96.80;;;;;;5007700;28;20057;-71
2023/06/14 06:37:42;;;;;;;7.35;2.40;;;19.50;96.90;;;;;;5007659;28;20041;-71
2023/06/14 06:40:08;;;;;;;11.20;2.50;;;19.30;97.20;;;;;;5032889;28;20084;-71
2023/06/14 06:42:34;;;;;;;7.55;2.22;;;19.20;97.60;;;;;;4997999;28;20081;-71
2023/06/14 06:45:00;;;;;;;9.20;2.47;;;19.10;97.70;;;;;;4999236;28;20465;-71
2023/06/14 06:47:26;;;;;;;5.80;2.28;;;19.10;97.80;;;;;;4999550;28;20038;-72
2023/06/14 06:49:51;;;;;;;7.18;2.45;;;19.10;98.20;;;;;;5020916;28;20045;-71
2023/06/14 06:52:17;;;;;;;5.35;2.13;;;19.00;97.90;;;;;;5007294;28;20030;-71
2023/06/14 06:54:43;;;;;;;6.63;2.38;;;19.00;98.10;;;;;;4989165;28;20073;-71
2023/06/14 06:57:10;;;;;;;5.43;2.22;;;19.00;98.00;;;;;;4999617;28;20042;-72
2023/06/14 06:59:37;;;;;;;5.75;2.13;;;19.00;97.70;;;;;;5002008;28;20386;-71
2023/06/14 07:02:03;;;;;;;5.18;2.08;;;19.00;97.70;;;;;;4975609;28;20095;-72
2023/06/14 07:04:29;;;;;;;6.22;1.92;;;19.00;97.60;;;;;;5000787;28;20045;-72
2023/06/14 07:06:55;;;;;;;12.73;2.15;;;19.00;97.60;;;;;;5002540;28;20143;-72
2023/06/14 07:09:21;;;;;;;6.78;2.20;;;19.10;97.70;;;;;;4979157;28;20116;-72
2023/06/14 07:11:47;;;;;;;6.13;2.08;;;19.10;97.60;;;;;;4993105;28;20041;-72
2023/06/14 07:14:12;;;;;;;8.70;2.33;;;19.10;97.70;;;;;;4992908;28;20045;-72
2023/06/14 07:16:38;;;;;;;7.80;2.22;;;19.20;97.40;;;;;;5022366;28;20049;-73
2023/06/14 07:19:05;;;;;;;6.45;1.95;;;19.30;97.50;;;;;;4979041;28;21688;-72
2023/06/14 07:21:30;;;;;;;6.15;1.90;;;19.40;97.30;;;;;;5008204;28;20081;-72
2023/06/14 07:23:56;;;;;;;8.48;2.20;;;19.50;97.20;;;;;;4994212;28;20136;-72
2023/06/14 07:26:22;;;;;;;5.70;2.35;;;19.60;97.30;;;;;;5028995;28;20054;-72
2023/06/14 07:28:49;;;;;;;7.55;2.08;;;19.80;97.00;;;;;;4990751;28;20042;-72
2023/06/14 07:31:19;;;;;;;6.32;2.08;;;19.90;97.20;;;;;;4978952;28;20046;-73
2023/06/14 07:33:45;;;;;;;5.43;2.60;;;20.10;97.10;;;;;;5015579;28;20129;-72
2023/06/14 07:36:11;;;;;;;7.13;2.30;;;20.30;96.50;;;;;;4993190;28;20084;-73
2023/06/14 07:38:37;;;;;;;5.72;2.10;;;20.40;96.10;;;;;;4996639;28;20284;-72
2023/06/14 07:41:03;;;;;;;6.32;2.00;;;20.50;96.40;;;;;;4988503;28;20471;-73
2023/06/14 07:43:29;;;;;;;7.15;2.50;;;20.60;96.30;;;;;;4974588;28;21001;-73
2023/06/14 07:45:55;;;;;;;4.55;2.28;;;20.70;95.50;;;;;;4979655;28;20821;-73
2023/06/14 07:48:21;;;;;;;4.93;2.08;;;20.80;96.30;;;;;;4989561;28;20141;-73
2023/06/14 07:50:46;;;;;;;8.38;2.13;;;20.90;96.40;;;;;;4983642;28;20046;-72
2023/06/14 07:53:12;;;;;;;9.55;2.53;;;21.00;96.30;;;;;;4991402;28;20049;-72
2023/06/14 07:55:39;;;;;;;6.35;1.75;;;21.10;95.40;;;;;;4988565;28;20412;-72
2023/06/14 07:58:06;;;;;;;4.25;1.92;;;21.20;95.80;;;;;;4990847;28;20622;-72
2023/06/14 08:00:32;;;;;;;4.50;2.00;;;21.30;95.80;;;;;;4987653;28;20050;-73
2023/06/14 08:02:59;;;;;;;7.55;1.90;;;21.40;95.40;;;;;;4993354;28;20560;-73
2023/06/14 08:05:28;;;;;;;8.75;2.20;;;21.50;95.50;;;;;;4969037;28;20655;-73
2023/06/14 08:07:55;;;;;;;6.20;2.05;;;21.60;94.60;;;;;;4989823;28;20054;-73
2023/06/14 08:10:22;;;;;;;8.35;2.30;;;21.70;94.80;;;;;;4991157;28;20682;-73
2023/06/14 08:12:49;;;;;;;12.93;2.28;;;21.80;93.90;;;;;;4988817;28;20096;-72
2023/06/14 08:15:16;;;;;;;6.28;2.22;;;21.80;93.20;;;;;;4986824;28;20061;-72
2023/06/14 08:17:45;;;;;;;4.95;2.20;;;21.80;93.30;;;;;;4969965;28;20123;-72
2023/06/14 08:20:11;;;;;;;5.85;1.80;;;21.80;93.40;;;;;;4969368;28;20179;-73
2023/06/14 08:22:37;;;;;;;5.13;2.20;;;21.90;93.80;;;;;;4989267;28;20459;-73
2023/06/14 08:25:07;;;;;;;5.55;1.90;;;22.00;93.60;;;;;;4987355;28;20076;-73
2023/06/14 08:27:32;;;;;;;9.02;2.38;;;22.10;93.90;;;;;;4988544;28;20037;-73
2023/06/14 08:29:58;;;;;;;5.65;1.75;;;22.20;93.40;;;;;;4988333;28;20042;-74
2023/06/14 08:32:23;;;;;;;4.90;2.05;;;22.30;93.40;;;;;;4988393;28;20050;-73
2023/06/14 08:34:49;;;;;;;8.38;1.98;;;22.30;93.20;;;;;;4986483;28;20620;-73
2023/06/14 08:37:15;;;;;;;8.77;2.15;;;22.40;93.40;;;;;;4983757;28;20525;-73
2023/06/14 08:39:41;;;;;;;9.85;2.38;;;22.50;93.30;;;;;;5020307;28;20129;-73
2023/06/14 08:42:08;;;;;;;4.70;1.92;;;22.50;92.30;;;;;;4990436;28;20093;-73
2023/06/14 08:44:34;;;;;;;5.82;1.80;;;22.50;92.70;;;;;;4989023;28;20057;-73
2023/06/14 08:47:00;;;;;;;5.55;1.85;;;22.60;92.40;;;;;;4984876;28;20069;-73
2023/06/14 08:49:28;;;;;;;7.65;2.10;;;22.70;91.90;;;;;;4988226;28;20132;-73
2023/06/14 08:51:58;;;;;;;5.25;1.77;;;22.70;91.40;;;;;;4993929;28;20073;-73
2023/06/14 08:54:27;;;;;;;5.97;1.77;;;22.70;91.00;;;;;;4990826;28;20085;-74
2023/06/14 08:56:57;;;;;;;7.18;2.17;;;22.70;90.40;;;;;;4986336;28;20654;-73
2023/06/14 08:59:27;;;;;;;6.20;2.30;;;22.70;90.90;;;;;;4990166;28;20053;-74
2023/06/14 09:01:54;;;;;;;6.43;1.77;;;22.70;91.50;;;;;;4993438;28;20054;-74
2023/06/14 09:04:29;;;;;;;6.68;1.88;;;22.80;90.80;;;;;;4999020;28;20139;-74
2023/06/14 09:06:55;;;;;;;5.22;2.15;;;22.80;90.40;;;;;;4997014;28;20061;-73
2023/06/14 09:09:25;;;;;;;6.13;1.80;;;22.80;90.10;;;;;;4995684;28;20042;-73
2023/06/14 09:11:51;;;;;;;4.90;1.83;;;22.90;89.30;;;;;;5028675;28;20042;-73
2023/06/14 09:14:23;;;;;;;8.07;2.15;;;22.90;89.50;;;;;;4992398;28;20046;-74
2023/06/14 09:16:52;;;;;;;8.82;1.90;;;22.90;90.20;;;;;;4991735;28;20034;-75
2023/06/14 09:19:25;;;;;;;5.07;1.98;;;23.00;90.30;;;;;;4998054;28;20046;-74
2023/06/14 09:21:52;;;;;;;7.80;1.70;;;23.10;89.60;;;;;;5011778;28;20034;-73
2023/06/14 09:24:18;;;;;;;5.20;1.80;;;23.10;89.70;;;;;;5003017;28;20046;-72
2023/06/14 09:26:47;;;;;;;8.10;2.42;;;23.10;88.00;;;;;;5005315;28;20074;-74
2023/06/14 09:29:13;;;;;;;5.00;1.90;;;23.10;88.20;;;;;;5032329;28;20359;-74
2023/06/14 09:31:38;;;;;;;8.80;2.78;;;23.20;89.40;;;;;;4994324;28;20068;-73
2023/06/14 09:34:05;;;;;;;9.40;1.90;;;23.20;89.10;;;;;;4991056;28;20042;-74
2023/06/14 09:36:32;;;;;;;6.50;1.80;;;23.30;90.00;;;;;;4986447;28;20046;-73
2023/06/14 09:39:06;;;;;;;7.15;1.80;;;23.40;89.30;;;;;;4986698;28;20133;-74
2023/06/14 09:41:32;;;;;;;4.82;1.67;;;23.40;88.70;;;;;;4989805;28;20060;-74
2023/06/14 09:44:03;;;;;;;7.88;2.10;;;23.50;89.60;;;;;;5022465;28;20053;-74
2023/06/14 09:46:29;;;;;;;5.50;1.80;;;23.50;86.80;;;;;;4982424;28;20045;-74
2023/06/14 09:48:56;;;;;;;7.75;2.33;;;23.60;88.90;;;;;;4983309;28;20041;-74
2023/06/14 09:51:26;;;;;;;5.88;1.63;;;23.60;88.80;;;;;;4991832;28;20116;-74
2023/06/14 09:53:55;;;;;;;4.43;1.90;;;23.60;89.50;;;;;;5025159;28;20045;-73
2023/06/14 09:56:27;;;;;;;5.63;1.98;;;23.70;89.30;;;;;;4993199;28;20116;-66
2023/06/14 09:58:56;;;;;;;5.53;2.05;;;23.70;88.80;;;;;;4967255;28;21460;-67
2023/06/14 10:01:24;;;;;;;5.40;1.80;;;23.70;85.90;;;;;;5003712;28;20060;-67
2023/06/14 10:04:02;;;;;;;7.03;2.28;;;23.70;87.10;;;;;;5022692;28;20050;-66
2023/06/14 10:06:29;;;;;;;5.32;1.77;;;23.70;88.90;;;;;;5003818;28;21858;-67
2023/06/14 10:08:59;;;;;;;8.40;1.83;;;23.70;85.60;;;;;;4991421;28;20046;-68
2023/06/14 10:11:29;;;;;;;4.78;2.03;;;23.70;86.60;;;;;;5026012;28;20573;-67
2023/06/14 10:13:58;;;;;;;4.75;2.00;;;23.70;86.80;;;;;;5005867;28;20805;-67
2023/06/14 10:16:39;;;;;;;8.43;1.98;;;23.70;85.40;;;;;;4991705;28;20128;-67
2023/06/14 10:19:28;;;;;;;4.50;2.00;;;23.60;84.20;;;;;;5020558;28;20057;-67
2023/06/14 10:22:16;;;;;;;7.28;1.90;;;23.60;84.60;;;;;;4987766;28;20049;-67
2023/06/14 10:24:43;;;;;;;8.30;1.83;;;23.70;83.80;;;;;;4988490;28;20061;-67
2023/06/14 10:27:12;;;;;;;6.50;1.98;;;23.70;85.30;;;;;;5022575;28;20090;-68
2023/06/14 10:30:05;;;;;;;5.18;1.88;;;23.70;83.60;;;;;;4988934;28;20054;-67
2023/06/14 10:32:32;;;;;;;5.55;1.67;;;23.70;83.30;;;;;;4989796;28;20420;-67
2023/06/14 10:35:08;;;;;;;4.88;1.75;;;23.70;85.10;;;;;;4989104;28;20041;-68
2023/06/14 10:37:35;;;;;;;6.40;1.60;;;23.70;85.10;;;;;;4988272;28;20073;-68
2023/06/14 10:40:02;;;;;;;5.25;2.08;;;23.80;86.00;;;;;;4987877;28;20530;-69
2023/06/14 10:42:31;;;;;;;6.82;1.85;;;23.80;85.70;;;;;;4984470;28;20527;-69
2023/06/14 10:45:01;;;;;;;6.50;1.90;;;23.90;84.90;;;;;;4986449;28;20045;-69
2023/06/14 10:47:31;;;;;;;4.97;2.00;;;23.90;85.70;;;;;;4993048;28;20049;-67
2023/06/14 10:50:05;;;;;;;5.18;1.85;;;24.00;84.10;;;;;;4984119;28;20155;-68
2023/06/14 10:52:35;;;;;;;7.43;2.08;;;24.00;84.00;;;;;;4990164;28;20603;-69
2023/06/14 10:55:10;;;;;;;7.40;2.20;;;24.00;84.40;;;;;;4986592;28;20054;-68
2023/06/14 10:57:38;;;;;;;6.35;1.90;;;24.00;83.20;;;;;;4984425;28;20045;-69
2023/06/14 11:00:15;;;;;;;4.45;1.88;;;24.00;82.60;;;;;;4989296;28;20054;-69
2023/06/14 11:03:13;;;;;;;7.47;1.77;;;24.00;83.50;;;;;;4991438;28;20410;-69
2023/06/14 11:05:52;;;;;;;6.28;2.28;;;23.90;82.90;;;;;;4988799;28;21451;-69
2023/06/14 11:08:47;;;;;;;7.05;1.90;;;23.90;83.60;;;;;;4987893;28;20070;-69
2023/06/14 11:11:13;;;;;;;4.03;1.80;;;23.90;83.90;;;;;;5006695;28;20060;-68
2023/06/14 11:13:41;;;;;;;5.13;1.77;;;23.90;84.30;;;;;;5005914;28;20048;-69
2023/06/14 11:16:15;;;;;;;6.63;1.83;;;24.00;84.10;;;;;;5004637;28;20677;-69
2023/06/14 11:18:42;;;;;;;5.53;1.95;;;24.00;81.40;;;;;;5039562;28;20049;-69
2023/06/14 11:21:08;;;;;;;5.82;1.90;;;24.00;81.90;;;;;;5004582;28;20045;-69
2023/06/14 11:23:35;;;;;;;4.53;1.60;;;24.00;81.70;;;;;;4999270;28;22550;-69
2023/06/14 11:26:01;;;;;;;4.00;1.50;;;24.00;83.30;;;;;;4996865;28;20050;-69
2023/06/14 11:28:40;;;;;;;4.80;1.77;;;24.00;82.90;;;;;;5029231;28;20034;-69
2023/06/14 11:31:06;;;;;;;5.20;1.80;;;24.10;82.90;;;;;;5029800;28;20137;-73
2023/06/14 11:33:33;;;;;;;6.40;1.80;;;24.20;83.50;;;;;;5002238;28;20061;-72
2023/06/14 11:36:01;;;;;;;6.53;2.00;;;24.30;83.40;;;;;;4983493;28;20132;-73
2023/06/14 11:38:26;;;;;;;7.05;1.65;;;24.30;83.40;;;;;;4997297;28;20034;-74
2023/06/14 11:40:52;;;;;;;7.82;2.00;;;24.30;82.30;;;;;;5002156;28;20046;-74
2023/06/14 11:43:18;;;;;;;5.28;1.70;;;24.40;82.40;;;;;;4999306;28;20042;-74
2023/06/14 11:45:48;;;;;;;10.18;1.95;;;24.40;82.40;;;;;;4999774;28;20109;-71
2023/06/14 11:48:14;;;;;;;6.82;2.13;;;24.40;82.70;;;;;;4999938;28;20150;-71
2023/06/14 11:50:40;;;;;;;4.38;1.60;;;24.50;82.10;;;;;;5000465;28;21212;-72
2023/06/14 11:53:07;;;;;;;4.93;1.92;;;24.50;83.80;;;;;;4993965;28;20050;-72
2023/06/14 11:55:40;;;;;;;5.60;1.58;;;24.60;83.40;;;;;;5000758;28;20048;-74
2023/06/14 11:58:05;;;;;;;5.40;1.83;;;24.50;83.00;;;;;;5000665;28;20042;-74
2023/06/14 12:00:32;;;;;;;6.28;1.63;;;24.60;83.00;;;;;;4996212;28;20050;-72
2023/06/14 12:02:57;;;;;;;7.65;1.63;;;24.60;80.40;;;;;;4994755;28;20042;-66
2023/06/14 12:05:25;;;;;;;10.48;1.75;;;24.60;80.00;;;;;;4992607;28;20056;-72
2023/06/14 12:07:59;;;;;;;4.30;1.50;;;24.50;80.30;;;;;;4993940;28;20061;-71
2023/06/14 12:10:26;;;;;;;4.80;1.58;;;24.40;78.90;;;;;;4990933;28;20161;-72
2023/06/14 12:12:58;;;;;;;3.22;1.38;;;24.40;80.70;;;;;;5021258;28;20092;-72
2023/06/14 12:15:24;;;;;;;3.67;1.42;;;24.40;81.50;;;;;;4970758;28;20685;-74
2023/06/14 12:17:50;;;;;;;4.60;1.20;;;24.40;80.70;;;;;;4982365;28;20046;-74
2023/06/14 12:20:16;;;;;;;2.58;1.13;;;24.40;79.90;;;;;;4971453;28;20078;-72
2023/06/14 12:22:52;;;;;;;3.25;1.30;;;24.50;79.80;;;;;;4977601;28;20049;-74
2023/06/14 12:25:33;;;;;;;4.45;1.27;;;24.50;79.50;;;;;;4983679;28;20056;-73
2023/06/14 12:28:07;;;;;;;7.03;1.73;;;24.60;78.30;;;;;;5006567;28;20053;-73
2023/06/14 12:30:34;;;;;;;6.68;1.48;;;24.60;78.40;;;;;;5017532;28;20420;-73
2023/06/14 12:33:01;;;;;;;5.40;1.48;;;24.60;78.20;;;;;;4987385;28;20053;-73
2023/06/14 12:35:26;;;;;;;5.53;1.50;;;24.50;79.90;;;;;;4992676;28;20064;-66
2023/06/14 12:37:53;;;;;;;6.13;2.03;;;24.50;80.40;;;;;;4981234;28;20139;-73
2023/06/14 12:40:19;;;;;;;4.18;1.30;;;24.60;79.60;;;;;;5022002;28;20463;-73
2023/06/14 12:42:47;;;;;;;8.00;1.63;;;24.60;80.00;;;;;;4990854;28;20050;-73
2023/06/14 12:45:13;;;;;;;5.03;1.20;;;24.70;81.00;;;;;;4992077;28;20894;-72
2023/06/14 12:47:39;;;;;;;6.43;1.40;;;24.80;79.70;;;;;;4991186;28;20784;-72